Time;durP1;ratioP1;P1;durP2;ratioP2;P2;SDS_P1;SDS_P2;PMS_P1;PMS_P2;Temp;Humidity;BMP_temperature;BMP_pressure;BME280_temperature;BME280_humidity;BME280_pressure;Samples;Min_cycle;Max_cycle;Signal;HPM_P1;HPM_P2
2023/10/09 00:03:06;;;;;;;0.20;0.20;;;;;;;12.05;59.87;100752.28;5349570;26;20091;-95
2023/10/09 00:08:10;;;;;;;0.00;0.00;;;;;;;12.01;59.85;100742.81;5351563;26;20062;-93
2023/10/09 00:10:44;;;;;;;0.10;0.10;;;;;;;11.95;59.85;100743.81;5330671;26;20485;-94
2023/10/09 00:13:10;;;;;;;0.00;0.00;;;;;;;12.12;59.85;100739.09;5331942;26;20803;-94
2023/10/09 00:15:35;;;;;;;0.10;0.10;;;;;;;12.10;59.86;100740.03;5330854;26;20107;-94
2023/10/09 00:18:01;;;;;;;0.00;0.00;;;;;;;12.24;59.87;100730.12;5330645;26;20087;-93
2023/10/09 00:20:38;;;;;;;0.10;0.10;;;;;;;12.23;59.87;100731.00;5330529;26;20075;-93
2023/10/09 00:23:12;;;;;;;0.00;0.00;;;;;;;12.17;59.86;100744.22;5332702;26;20661;-93
2023/10/09 00:25:44;;;;;;;0.00;0.00;;;;;;;12.03;59.85;100728.00;5349370;26;20119;-94
2023/10/09 00:28:10;;;;;;;0.35;0.20;;;;;;;12.09;59.86;100727.88;5331907;26;20612;-94
2023/10/09 00:30:40;;;;;;;0.00;0.00;;;;;;;12.19;59.86;100731.97;5330717;26;20060;-93
2023/10/09 00:33:07;;;;;;;;;;;;;;;12.28;59.86;100731.75;5331309;26;20064;-94
2023/10/09 00:35:36;;;;;;;0.00;0.00;;;;;;;12.45;59.88;100721.78;5331195;26;20046;-94
2023/10/09 00:40:47;;;;;;;0.00;0.00;;;;;;;12.41;59.87;100729.72;5352318;26;20063;-94
2023/10/09 00:43:14;;;;;;;0.00;0.00;;;;;;;12.23;59.86;100731.00;5333318;26;20029;-93
2023/10/09 00:45:40;;;;;;;0.10;0.10;;;;;;;11.99;59.85;100722.84;5335302;26;20060;-93
2023/10/09 00:48:08;;;;;;;0.00;0.00;;;;;;;12.15;59.86;100725.13;5332283;26;20052;-94
2023/10/09 00:50:35;;;;;;;0.00;0.00;;;;;;;12.32;59.87;100720.38;5340657;26;20024;-94
2023/10/09 00:53:02;;;;;;;0.20;0.20;;;;;;;12.17;59.87;100720.72;5343414;26;20064;-96
2023/10/09 00:55:38;;;;;;;0.10;0.10;;;;;;;12.13;59.86;100716.47;5353593;26;20059;-95
2023/10/09 00:58:09;;;;;;;0.00;0.00;;;;;;;12.15;59.87;100718.16;5333307;26;20709;-96
2023/10/09 01:00:55;;;;;;;0.00;0.00;;;;;;;12.01;59.85;100721.94;5331728;26;20124;-95
2023/10/09 01:03:22;;;;;;;0.00;0.00;;;;;;;12.33;59.87;100718.63;5352818;26;20057;-95
2023/10/09 01:05:58;;;;;;;0.00;0.00;;;;;;;11.98;59.86;100728.09;5331501;26;20075;-94
2023/10/09 01:08:43;;;;;;;0.10;0.10;;;;;;;12.03;59.85;100730.59;5331462;26;20051;-93
2023/10/09 01:11:30;;;;;;;0.00;0.00;;;;;;;11.92;59.85;100729.09;5333115;26;20076;-94
2023/10/09 01:14:11;;;;;;;0.00;0.00;;;;;;;11.91;59.85;100731.75;5349416;26;20068;-95
2023/10/09 01:16:37;;;;;;;0.00;0.00;;;;;;;11.97;59.86;100718.56;5333410;26;20075;-94
2023/10/09 01:19:13;;;;;;;0.00;0.00;;;;;;;12.09;59.86;100715.69;5330751;26;20087;-95
2023/10/09 01:21:39;;;;;;;0.00;0.00;;;;;;;12.23;59.87;100717.97;5332214;26;20436;-95
2023/10/09 01:24:08;;;;;;;0.10;0.10;;;;;;;11.99;59.85;100730.66;5330990;26;20135;-95
2023/10/09 01:26:46;;;;;;;0.47;0.47;;;;;;;11.91;59.85;100736.97;5331851;26;20131;-95
2023/10/09 01:29:21;;;;;;;0.00;0.00;;;;;;;12.12;59.86;100733.03;5352184;26;20051;-95
2023/10/09 01:34:38;;;;;;;0.32;0.32;;;;;;;12.25;59.87;100735.31;5351198;26;20060;-94
2023/10/09 01:37:26;;;;;;;0.00;0.00;;;;;;;12.23;59.86;100728.41;5352175;26;20024;-96
2023/10/09 01:39:52;;;;;;;0.10;0.10;;;;;;;12.03;59.85;100735.81;5333410;26;20052;-96
2023/10/09 01:42:27;;;;;;;0.00;0.00;;;;;;;12.06;59.86;100730.53;5331856;26;20033;-96
2023/10/09 01:44:55;;;;;;;0.05;0.05;;;;;;;12.03;59.85;100730.59;5333138;26;20100;-94
2023/10/09 01:47:21;;;;;;;0.10;0.10;;;;;;;12.48;59.88;100724.31;5331383;26;20028;-94
2023/10/09 01:49:52;;;;;;;0.65;0.20;;;;;;;12.39;59.87;100727.16;5331704;26;20062;-95
2023/10/09 01:52:18;;;;;;;0.55;0.32;;;;;;;12.28;59.86;100736.97;5331471;26;20125;-94
2023/10/09 01:54:48;;;;;;;0.13;0.13;;;;;;;12.30;59.88;100735.19;5331035;26;20153;-93
2023/10/09 01:57:15;;;;;;;0.00;0.00;;;;;;;12.09;59.86;100747.00;5331357;26;20435;-95
2023/10/09 01:59:43;;;;;;;0.65;0.45;;;;;;;12.06;59.86;100752.25;5331225;26;20631;-96
2023/10/09 02:02:55;;;;;;;0.00;0.00;;;;;;;12.06;59.86;100752.25;5331082;26;20063;-95
2023/10/09 02:05:43;;;;;;;0.00;0.00;;;;;;;12.06;59.86;100756.63;5345621;26;20064;-94
2023/10/09 02:07:44;;;;;;;0.00;0.00;;;;;;;12.14;59.86;100752.13;5344494;26;20070;-94
2023/10/09 02:12:57;;;;;;;0.00;0.00;;;;;;;12.07;59.86;100734.88;5329324;26;20065;-95
2023/10/09 02:18:18;;;;;;;0.00;0.00;;;;;;;12.09;59.86;100738.31;5337256;26;20074;-95
2023/10/09 02:21:12;;;;;;;0.05;0.05;;;;;;;11.99;59.85;100730.66;5351253;26;20052;-96
2023/10/09 02:23:49;;;;;;;0.88;0.30;;;;;;;12.14;59.86;100716.44;5346152;26;20044;-95
2023/10/09 02:29:03;;;;;;;0.00;0.00;;;;;;;12.28;59.86;100731.75;5334323;26;20090;-93
2023/10/09 02:31:51;;;;;;;0.52;0.52;;;;;;;12.22;59.87;100713.62;5316019;26;20078;-94
2023/10/09 02:34:21;;;;;;;0.13;0.13;;;;;;;12.18;59.86;100725.03;5318928;26;20068;-95
2023/10/09 02:36:49;;;;;;;0.20;0.17;;;;;;;12.27;59.86;100717.84;5314353;26;20068;-94
2023/10/09 02:39:25;;;;;;;0.00;0.00;;;;;;;12.24;59.87;100706.62;5313912;26;20111;-93
2023/10/09 02:41:55;;;;;;;0.00;0.00;;;;;;;12.20;59.87;100711.06;5318343;26;20064;-95
2023/10/09 02:44:24;;;;;;;1.77;0.45;;;;;;;12.26;59.86;100713.53;5314550;26;20075;-94
2023/10/09 02:46:50;;;;;;;0.00;0.00;;;;;;;12.19;59.86;100711.97;5314222;26;20689;-94
2023/10/09 02:49:16;;;;;;;2.28;0.52;;;;;;;12.34;59.87;100694.22;5316651;26;20130;-93
2023/10/09 02:51:41;;;;;;;0.28;0.25;;;;;;;12.32;59.87;100694.25;5315067;26;20391;-96
2023/10/09 02:57:06;;;;;;;0.00;0.00;;;;;;;12.46;59.88;100675.62;5336359;26;20172;-94
2023/10/09 02:59:31;;;;;;;0.00;0.00;;;;;;;12.48;59.88;100676.44;5318213;26;20124;-94
2023/10/09 03:01:59;;;;;;;0.00;0.00;;;;;;;12.48;59.88;100692.13;5312926;26;20056;-94
2023/10/09 03:04:30;;;;;;;0.00;0.00;;;;;;;12.42;59.89;100695.75;5313751;26;20111;-94
2023/10/09 03:06:57;;;;;;;0.00;0.00;;;;;;;12.31;59.88;100687.34;5314549;26;20031;-93
2023/10/09 03:09:28;;;;;;;0.00;0.00;;;;;;;12.34;59.87;100692.47;5313092;26;20121;-96
2023/10/09 03:12:02;;;;;;;0.47;0.32;;;;;;;12.56;59.89;100698.88;5310249;26;20056;-95
2023/10/09 03:14:29;;;;;;;0.10;0.10;;;;;;;12.51;59.89;100692.03;5309462;26;20133;-94
2023/10/09 03:16:58;;;;;;;0.43;0.20;;;;;;;12.58;59.89;100673.59;5309342;26;20068;-93
2023/10/09 03:19:28;;;;;;;0.00;0.00;;;;;;;12.55;59.88;100668.44;5327382;26;20056;-94
2023/10/09 03:21:53;;;;;;;0.10;0.10;;;;;;;12.59;59.89;100669.22;5309109;26;20657;-93
2023/10/09 03:24:22;;;;;;;0.00;0.00;;;;;;;12.44;59.88;100675.69;5290693;26;20063;-92
2023/10/09 03:26:49;;;;;;;0.00;0.00;;;;;;;12.28;59.88;100675.19;5327226;26;20064;-94
2023/10/09 03:29:15;;;;;;;0.00;0.00;;;;;;;12.37;59.88;100663.69;5309115;26;20057;-93
2023/10/09 03:31:43;;;;;;;0.00;0.00;;;;;;;12.43;59.88;100666.12;5308553;26;20416;-95
2023/10/09 03:34:10;;;;;;;0.00;0.00;;;;;;;12.50;59.88;100659.00;5309592;26;20760;-93
2023/10/09 03:36:39;;;;;;;0.00;0.00;;;;;;;12.55;59.88;100663.22;5309177;26;20095;-92
2023/10/09 03:39:18;;;;;;;0.45;0.45;;;;;;;12.52;59.88;100668.50;5309375;26;20064;-93
2023/10/09 03:41:46;;;;;;;0.00;0.00;;;;;;;12.52;59.89;100672.84;5310849;26;20389;-94
2023/10/09 03:44:14;;;;;;;0.00;0.00;;;;;;;12.46;59.88;100673.88;5309326;26;20195;-94
2023/10/09 03:46:44;;;;;;;0.00;0.00;;;;;;;12.49;59.88;100680.78;5308898;26;20712;-95
2023/10/09 03:49:11;;;;;;;0.00;0.00;;;;;;;12.54;59.88;100676.31;5309925;26;20167;-93
2023/10/09 03:51:37;;;;;;;0.00;0.00;;;;;;;12.31;59.87;100673.41;5310000;26;20057;-92
2023/10/09 03:54:07;;;;;;;0.10;0.10;;;;;;;12.50;59.89;100670.28;5291473;26;20124;-94
2023/10/09 03:56:32;;;;;;;;;;;;;;;12.66;59.89;100670.75;5320689;26;20106;-94
2023/10/09 03:58:58;;;;;;;0.00;0.00;;;;;;;12.62;59.89;100668.28;5336990;26;19963;-93
2023/10/09 04:01:28;;;;;;;0.75;0.75;;;;;;;12.45;59.88;100669.56;5310792;26;20104;-95
2023/10/09 04:04:00;;;;;;;0.00;0.00;;;;;;;12.41;59.87;100665.31;5329684;26;20417;-95
2023/10/09 04:06:30;;;;;;;1.20;0.17;;;;;;;12.44;59.88;100661.75;5309956;26;20095;-93
2023/10/09 04:08:58;;;;;;;0.93;0.93;;;;;;;12.45;59.88;100653.87;5327703;26;20053;-93
2023/10/09 04:11:24;;;;;;;0.00;0.00;;;;;;;12.51;59.88;100666.78;5308784;26;20500;-92
2023/10/09 04:13:51;;;;;;;0.20;0.20;;;;;;;12.50;59.89;100665.06;5308671;26;20335;-91
2023/10/09 04:16:50;;;;;;;0.00;0.00;;;;;;;12.59;59.89;100659.62;5309368;26;20064;-94
2023/10/09 04:19:11;;;;;;;0.22;0.10;;;;;;;12.47;59.88;100664.28;5333664;26;20049;-94
2023/10/09 04:21:37;;;;;;;0.00;0.00;;;;;;;12.63;59.89;100654.31;5308958;26;20463;-94
2023/10/09 04:26:46;;;;;;;0.10;0.10;;;;;;;12.95;59.90;100662.16;5328835;26;20831;-92
2023/10/09 04:29:27;;;;;;;0.00;0.00;;;;;;;12.81;59.90;100649.47;5329570;26;20053;-94
2023/10/09 04:32:34;;;;;;;0.00;0.00;;;;;;;12.85;59.90;100639.78;5320923;26;20020;-95
2023/10/09 04:35:22;;;;;;;0.35;0.20;;;;;;;12.85;59.90;100645.88;5351181;26;20064;-94
2023/10/09 04:37:52;;;;;;;0.10;0.00;;;;;;;12.80;59.89;100626.00;5336395;26;20060;-96
2023/10/09 04:43:09;;;;;;;0.00;0.00;;;;;;;12.79;59.89;100635.59;5333350;26;20063;-96
2023/10/09 04:48:10;;;;;;;0.00;0.00;;;;;;;12.74;59.90;100632.22;5333078;26;20025;-95
2023/10/09 04:50:58;;;;;;;0.00;0.00;;;;;;;12.81;59.90;100627.72;5310613;26;20096;-95
2023/10/09 04:53:22;;;;;;;0.75;0.37;;;;;;;12.86;59.90;100629.31;5350912;26;20609;-93
2023/10/09 04:55:54;;;;;;;0.00;0.00;;;;;;;13.04;59.91;100620.09;5312533;26;20060;-95
2023/10/09 04:58:26;;;;;;;0.00;0.00;;;;;;;12.85;59.90;100619.75;5311758;26;20074;-94
2023/10/09 05:01:03;;;;;;;0.20;0.20;;;;;;;12.69;59.90;100622.81;5313007;26;20030;-95
2023/10/09 05:03:42;;;;;;;0.00;0.00;;;;;;;12.87;59.90;100617.09;5313669;26;20071;-92
2023/10/09 05:06:21;;;;;;;0.00;0.00;;;;;;;12.86;59.90;100602.31;5310924;26;20094;-93
2023/10/09 05:08:48;;;;;;;0.00;0.00;;;;;;;13.00;59.91;100602.75;5310530;26;20058;-94
2023/10/09 05:14:11;;;;;;;0.43;0.43;;;;;;;12.81;59.90;100586.78;5330286;26;20055;-94
2023/10/09 05:16:37;;;;;;;0.05;0.05;;;;;;;13.04;59.91;100603.56;5311234;26;20118;-94
2023/10/09 05:19:06;;;;;;;0.00;0.00;;;;;;;12.86;59.90;100605.78;5308674;26;20091;-92
2023/10/09 05:21:36;;;;;;;0.00;0.00;;;;;;;12.79;59.89;100596.41;5308978;26;20048;-93
2023/10/09 05:29:19;;;;;;;0.70;0.70;;;;;;;12.78;59.89;100599.94;5341745;26;20060;-92
2023/10/09 05:32:03;;;;;;;0.00;0.00;;;;;;;12.83;59.90;100599.78;5312934;26;20064;-94
2023/10/09 05:35:04;;;;;;;0.00;0.00;;;;;;;12.86;59.90;100592.72;5310485;26;20056;-94
2023/10/09 05:37:26;;;;;;;0.25;0.25;;;;;;;12.86;59.90;100591.88;5330893;26;20057;-94
2023/10/09 05:40:10;;;;;;;0.00;0.00;;;;;;;13.02;59.90;100608.84;5309580;26;20079;-94
2023/10/09 05:48:04;;;;;;;0.00;0.00;;;;;;;12.93;59.90;100627.37;5329573;26;20672;-95
2023/10/09 05:50:34;;;;;;;0.00;0.00;;;;;;;12.96;59.89;100636.87;5314448;26;20064;-95
2023/10/09 06:06:32;;;;;;;2.92;0.43;;;;;;;13.41;59.92;100609.44;5345624;26;20070;-94
2023/10/09 06:11:39;;;;;;;0.13;0.13;;;;;;;13.64;59.95;100585.19;5328269;26;20042;-93
2023/10/09 06:14:12;;;;;;;1.60;0.98;;;;;;;13.44;59.93;100590.19;5308594;26;20056;-93
2023/10/09 06:16:41;;;;;;;0.00;0.00;;;;;;;13.18;59.92;100586.59;5309528;26;20044;-93
2023/10/09 06:19:26;;;;;;;0.00;0.00;;;;;;;13.49;59.94;100572.63;5308080;26;20666;-92
2023/10/09 06:24:42;;;;;;;0.62;0.62;;;;;;;13.75;59.95;100564.81;5329123;26;20878;-93
2023/10/09 06:34:52;;;;;;;0.00;0.00;;;;;;;13.97;59.97;100554.50;5327930;26;20074;-96
2023/10/09 06:45:06;;;;;;;0.45;0.17;;;;;;;13.99;59.96;100575.38;5311513;26;20124;-95
2023/10/09 06:47:41;;;;;;;0.55;0.55;;;;;;;13.94;59.95;100569.41;5325883;26;20123;-94
2023/10/09 06:55:51;;;;;;;0.10;0.10;;;;;;;14.38;59.98;100568.78;5329153;26;20079;-95
2023/10/09 06:58:26;;;;;;;0.15;0.15;;;;;;;14.32;59.99;100565.53;5315498;26;20127;-94
2023/10/09 07:03:33;;;;;;;0.00;0.00;;;;;;;14.54;59.99;100544.72;5335130;26;20107;-95
2023/10/09 07:06:09;;;;;;;0.30;0.30;;;;;;;14.56;59.99;100545.50;5307738;26;20786;-94
2023/10/09 07:08:37;;;;;;;0.20;0.20;;;;;;;14.58;60.00;100533.22;5326723;26;20103;-94
2023/10/09 07:11:57;;;;;;;0.00;0.00;;;;;;;14.58;60.00;100526.22;5307264;26;20072;-94
2023/10/09 07:14:41;;;;;;;0.60;0.30;;;;;;;14.47;59.98;100524.91;5332686;26;20060;-94
2023/10/09 07:17:26;;;;;;;1.58;0.22;;;;;;;14.72;60.01;100525.72;5326989;26;20068;-95
2023/10/09 07:24:49;;;;;;;0.00;0.00;;;;;;;14.58;60.00;100523.59;5326809;26;20519;-94
2023/10/09 07:27:43;;;;;;;0.00;0.00;;;;;;;14.82;60.01;100524.47;5328003;26;20071;-95
2023/10/09 07:32:52;;;;;;;0.00;0.00;;;;;;;14.76;60.00;100516.81;5329639;26;20357;-94
2023/10/09 07:38:08;;;;;;;1.08;0.80;;;;;;;15.11;60.03;100481.41;5314455;26;20096;-93
2023/10/09 07:40:55;;;;;;;0.00;0.00;;;;;;;15.02;60.02;100466.03;5310246;26;20030;-95
2023/10/09 07:43:45;;;;;;;0.00;0.00;;;;;;;15.04;60.02;100453.72;5312121;26;20111;-96
2023/10/09 07:46:52;;;;;;;0.08;0.08;;;;;;;15.09;60.03;100441.28;5311839;26;20704;-95
2023/10/09 07:49:24;;;;;;;0.00;0.00;;;;;;;15.06;60.02;100436.16;5314056;26;20788;-95
2023/10/09 07:51:49;;;;;;;0.00;0.00;;;;;;;15.07;60.02;100437.00;5309945;26;20048;-95
2023/10/09 07:54:15;;;;;;;0.00;0.00;;;;;;;15.21;60.03;100403.22;5309348;26;20060;-94
2023/10/09 07:56:41;;;;;;;0.22;0.22;;;;;;;15.32;60.04;100411.50;5290064;26;20116;-94
2023/10/09 07:59:13;;;;;;;0.57;0.40;;;;;;;15.33;60.04;100418.44;5291721;26;20113;-93
2023/10/09 08:01:52;;;;;;;0.45;0.45;;;;;;;15.52;60.04;100414.16;5310722;26;20044;-95
2023/10/09 08:07:19;;;;;;;0.10;0.10;;;;;;;15.69;60.05;100410.88;5330020;26;20096;-94
2023/10/09 08:09:48;;;;;;;0.00;0.00;;;;;;;15.94;60.08;100410.66;5309779;26;20058;-96
2023/10/09 08:12:38;;;;;;;0.00;0.00;;;;;;;16.01;60.08;100422.59;5308470;26;20063;-94
2023/10/09 08:15:20;;;;;;;0.00;0.00;;;;;;;16.04;60.08;100422.47;5329588;26;20075;-94
2023/10/09 08:18:03;;;;;;;1.00;0.65;;;;;;;16.11;60.08;100416.03;5310811;26;20060;-94
2023/10/09 08:20:36;;;;;;;0.00;0.00;;;;;;;16.15;60.07;100393.97;5309680;26;20469;-94
2023/10/09 08:23:04;;;;;;;0.40;0.40;;;;;;;16.12;60.08;100396.72;5316881;26;20094;-95
2023/10/09 08:25:33;;;;;;;0.25;0.20;;;;;;;16.13;60.08;100374.81;5312040;26;20056;-95
2023/10/09 08:28:39;;;;;;;0.10;0.10;;;;;;;16.21;60.08;100375.31;5327377;26;20064;-94
2023/10/09 08:30:50;;;;;;;0.28;0.22;;;;;;;16.20;60.09;100375.38;5331150;26;20025;-95
2023/10/09 08:35:55;;;;;;;0.00;0.00;;;;;;;16.43;60.10;100377.81;5334402;26;20029;-95
2023/10/09 08:38:24;;;;;;;0.00;0.00;;;;;;;16.42;60.10;100370.84;5309451;26;20072;-93
2023/10/09 08:40:50;;;;;;;0.15;0.08;;;;;;;16.43;60.10;100363.81;5308733;26;20053;-94
2023/10/09 08:43:20;;;;;;;0.00;0.00;;;;;;;16.37;60.09;100362.31;5308576;26;20111;-95
2023/10/09 08:45:52;;;;;;;0.00;0.00;;;;;;;16.46;60.11;100353.16;5309151;26;20070;-95
2023/10/09 08:48:18;;;;;;;0.00;0.00;;;;;;;16.66;60.11;100355.75;5308882;26;20750;-95
2023/10/09 08:50:45;;;;;;;0.00;0.00;;;;;;;16.73;60.12;100353.66;5308351;26;20096;-94
2023/10/09 08:53:16;;;;;;;0.00;0.00;;;;;;;16.74;60.11;100356.22;5308313;26;20090;-95
2023/10/09 08:55:41;;;;;;;0.00;0.00;;;;;;;16.98;60.13;100345.44;5326532;26;20167;-96
2023/10/09 08:58:18;;;;;;;0.00;0.00;;;;;;;16.94;60.13;100346.53;5308640;26;20063;-95
2023/10/09 09:00:45;;;;;;;0.00;0.00;;;;;;;17.08;60.13;100347.56;5326372;26;20123;-95
2023/10/09 09:03:12;;;;;;;2.03;0.43;;;;;;;17.14;60.15;100347.25;5312589;26;20021;-95
2023/10/09 09:05:38;;;;;;;0.52;0.52;;;;;;;17.36;60.15;100338.28;5308804;26;20068;-95
2023/10/09 09:08:03;;;;;;;0.00;0.00;;;;;;;17.26;60.14;100339.66;5308690;26;20052;-95
2023/10/09 09:10:35;;;;;;;0.00;0.00;;;;;;;17.36;60.15;100330.41;5308238;26;20048;-95
2023/10/09 09:13:03;;;;;;;1.65;0.70;;;;;;;17.42;60.15;100319.53;5309878;26;20016;-95
2023/10/09 09:15:32;;;;;;;0.00;0.00;;;;;;;17.56;60.16;100311.81;5308142;26;20132;-95
2023/10/09 09:18:11;;;;;;;0.00;0.00;;;;;;;17.45;60.15;100311.50;5290969;26;20064;-95
2023/10/09 09:20:40;;;;;;;0.62;0.62;;;;;;;17.56;60.16;100313.59;5311453;26;20056;-95
2023/10/09 09:23:05;;;;;;;0.10;0.10;;;;;;;17.65;60.16;100302.56;5308626;26;20056;-94
2023/10/09 09:25:47;;;;;;;0.15;0.15;;;;;;;17.66;60.16;100314.78;5307946;26;20106;-95
2023/10/09 09:28:19;;;;;;;0.10;0.10;;;;;;;17.73;60.17;100311.78;5326704;26;20064;-95
2023/10/09 09:30:50;;;;;;;0.05;0.05;;;;;;;17.87;60.18;100313.69;5292116;26;20119;-94
2023/10/09 09:33:43;;;;;;;0.20;0.20;;;;;;;17.97;60.18;100309.62;5308853;26;20044;-93
2023/10/09 09:36:10;;;;;;;0.98;0.75;;;;;;;17.99;60.19;100297.25;5310875;26;20064;-94
2023/10/09 09:38:47;;;;;;;1.02;0.65;;;;;;;18.06;60.19;100298.63;5308403;26;20060;-95
2023/10/09 09:41:23;;;;;;;0.00;0.00;;;;;;;18.18;60.20;100297.09;5309612;26;20069;-96
2023/10/09 09:43:52;;;;;;;0.00;0.00;;;;;;;18.28;60.19;100302.72;5328918;26;20087;-95
2023/10/09 09:46:18;;;;;;;1.10;1.00;;;;;;;18.29;60.21;100302.63;5326524;26;20065;-94
2023/10/09 09:48:47;;;;;;;0.10;0.10;;;;;;;18.25;60.20;100295.84;5308020;26;20063;-94
2023/10/09 09:51:14;;;;;;;0.13;0.13;;;;;;;18.26;60.20;100297.53;5309321;26;20715;-94
2023/10/09 09:53:40;;;;;;;1.55;0.98;;;;;;;18.34;60.20;100283.94;5308093;26;20060;-94
2023/10/09 09:56:05;;;;;;;0.00;0.00;;;;;;;18.31;60.21;100292.84;5308047;26;20079;-95
2023/10/09 09:58:42;;;;;;;0.30;0.30;;;;;;;18.42;60.21;100282.56;5307778;26;20049;-96
2023/10/09 10:01:16;;;;;;;0.13;0.13;;;;;;;18.35;60.20;100281.19;5311237;26;20051;-93
2023/10/09 10:03:44;;;;;;;0.22;0.22;;;;;;;18.40;60.21;100276.53;5322969;26;20040;-96
2023/10/09 10:06:10;;;;;;;0.00;0.00;;;;;;;18.47;60.21;100273.56;5316571;26;20523;-95
2023/10/09 10:08:38;;;;;;;0.00;0.00;;;;;;;18.61;60.21;100279.75;5309053;26;20056;-94
2023/10/09 10:11:13;;;;;;;0.00;0.00;;;;;;;18.73;60.22;100264.22;5307861;26;20056;-95
2023/10/09 10:13:42;;;;;;;0.93;0.55;;;;;;;18.70;60.22;100249.41;5291482;26;20652;-96
2023/10/09 10:16:19;;;;;;;0.10;0.10;;;;;;;19.01;60.24;100237.91;5326327;26;20425;-94
2023/10/09 10:19:06;;;;;;;0.30;0.30;;;;;;;19.14;60.24;100235.38;5303986;27;20075;-94
2023/10/09 10:21:37;;;;;;;0.00;0.00;;;;;;;19.04;60.24;100190.22;5306864;26;20080;-95
2023/10/09 10:24:06;;;;;;;0.08;0.08;;;;;;;19.07;60.25;100200.59;5308178;26;20079;-94
2023/10/09 10:26:33;;;;;;;0.25;0.25;;;;;;;19.01;60.24;100204.47;5307983;26;20060;-95
2023/10/09 10:29:26;;;;;;;0.00;0.00;;;;;;;19.07;60.24;100191.84;5307649;26;20068;-95
2023/10/09 10:31:56;;;;;;;0.00;0.00;;;;;;;18.98;60.23;100175.63;5309118;26;20049;-94
2023/10/09 10:34:24;;;;;;;0.75;0.65;;;;;;;19.11;60.24;100167.81;5308617;26;20107;-95
2023/10/09 10:36:58;;;;;;;0.37;0.37;;;;;;;19.10;60.24;100165.25;5308635;26;20061;-96
2023/10/09 10:39:42;;;;;;;2.20;1.20;;;;;;;19.16;60.25;100163.09;5309652;26;20078;-95
2023/10/09 10:42:09;;;;;;;0.10;0.10;;;;;;;19.10;60.24;100167.91;5310311;26;20059;-96
2023/10/09 10:44:38;;;;;;;0.00;0.00;;;;;;;19.14;60.24;100161.50;5307896;26;20641;-95
2023/10/09 10:47:32;;;;;;;0.00;0.00;;;;;;;19.27;60.26;100138.69;5308580;26;20061;-96
2023/10/09 10:50:11;;;;;;;0.00;0.00;;;;;;;19.35;60.26;100131.16;5311803;26;20033;-94
2023/10/09 10:52:41;;;;;;;0.27;0.27;;;;;;;19.21;60.25;100137.28;5310041;26;20068;-95
2023/10/09 10:58:00;;;;;;;0.00;0.00;;;;;;;19.43;60.26;100122.78;5329040;26;20060;-96
2023/10/09 11:03:54;;;;;;;0.00;0.00;;;;;;;19.49;60.26;100123.22;5279073;26;20053;-95
2023/10/09 11:06:37;;;;;;;0.62;0.62;;;;;;;19.64;60.27;100113.53;5313431;26;20143;-95
2023/10/09 11:09:20;;;;;;;0.32;0.20;;;;;;;19.83;60.28;100115.81;5310057;26;20115;-94
2023/10/09 11:11:50;;;;;;;0.00;0.00;;;;;;;19.90;60.29;100088.91;5310799;26;20068;-95
2023/10/09 11:14:15;;;;;;;0.10;0.10;;;;;;;20.07;60.29;100068.44;5308142;26;20438;-94
2023/10/09 11:16:41;;;;;;;1.10;0.52;;;;;;;20.14;60.29;100080.34;5307985;26;20066;-96
2023/10/09 11:19:28;;;;;;;0.00;0.00;;;;;;;20.26;60.31;100113.88;5308180;26;20082;-95
2023/10/09 11:24:34;;;;;;;0.00;0.00;;;;;;;20.51;60.32;100086.66;5328128;26;20056;-95
2023/10/09 11:27:06;;;;;;;0.00;0.00;;;;;;;20.32;60.31;100105.53;5304740;27;20049;-96
2023/10/09 11:32:23;;;;;;;0.05;0.05;;;;;;;20.29;60.31;100059.94;5328303;26;20056;-94
2023/10/09 11:34:52;;;;;;;0.35;0.22;;;;;;;20.64;60.33;100092.81;5315166;26;20083;-94
2023/10/09 11:37:38;;;;;;;0.20;0.20;;;;;;;20.59;60.32;100083.53;5339271;26;20027;-94
2023/10/09 11:40:23;;;;;;;0.00;0.00;;;;;;;20.83;60.34;100087.13;5312511;26;20398;-95
2023/10/09 11:42:49;;;;;;;0.00;0.00;;;;;;;20.83;60.34;100100.34;5326618;26;20139;-94
2023/10/09 11:45:29;;;;;;;0.00;0.00;;;;;;;20.96;60.34;100121.50;5308209;26;20056;-94
2023/10/09 11:48:02;;;;;;;0.45;0.13;;;;;;;20.84;60.33;100125.88;5308692;26;20605;-95
2023/10/09 11:50:55;;;;;;;0.00;0.00;;;;;;;21.01;60.35;100133.47;5308965;26;20057;-94
2023/10/09 11:55:49;;;;;;;1.27;0.62;;;;;;;21.32;60.37;100105.75;5326932;26;20076;-94
2023/10/09 11:58:22;;;;;;;0.00;0.00;;;;;;;21.35;60.37;100109.97;5308010;26;20182;-95
2023/10/09 12:00:56;;;;;;;0.90;0.40;;;;;;;21.39;60.38;100098.22;5308850;26;20110;-94
2023/10/09 12:03:29;;;;;;;0.00;0.00;;;;;;;21.52;60.38;100075.16;5308811;26;20075;-94
2023/10/09 12:06:14;;;;;;;0.00;0.00;;;;;;;21.54;60.37;100077.72;5308103;26;20056;-95
2023/10/09 12:08:43;;;;;;;0.00;0.00;;;;;;;21.58;60.38;100071.25;5309598;26;20084;-95
2023/10/09 12:11:09;;;;;;;0.17;0.17;;;;;;;21.58;60.38;100069.44;5308271;26;20069;-94
2023/10/09 12:13:35;;;;;;;0.28;0.28;;;;;;;21.66;60.38;100069.72;5308125;26;20665;-96
2023/10/09 12:16:00;;;;;;;0.00;0.00;;;;;;;21.60;60.38;100059.59;5308055;26;20048;-95
2023/10/09 12:18:28;;;;;;;0.00;0.00;;;;;;;21.52;60.38;100043.38;5307894;26;20102;-94
2023/10/09 12:21:02;;;;;;;0.00;0.00;;;;;;;21.49;60.37;100035.66;5308253;26;20064;-95
2023/10/09 12:23:27;;;;;;;9.55;1.40;;;;;;;21.38;60.38;100027.66;5309668;26;20126;-95
2023/10/09 12:25:56;;;;;;;0.13;0.13;;;;;;;21.31;60.37;100023.78;5307759;26;20066;-93
2023/10/09 12:28:22;;;;;;;1.17;0.68;;;;;;;21.38;60.38;100027.66;5308173;26;20060;-94
2023/10/09 12:30:53;;;;;;;0.10;0.10;;;;;;;21.45;60.37;100032.41;5308038;26;20060;-93
2023/10/09 12:33:27;;;;;;;0.10;0.10;;;;;;;21.52;60.38;100031.94;5308541;26;20095;-94
2023/10/09 12:35:53;;;;;;;0.20;0.10;;;;;;;21.20;60.36;100032.44;5310753;26;20120;-94
2023/10/09 12:38:22;;;;;;;0.00;0.00;;;;;;;21.19;60.36;100006.06;5307938;26;20391;-94
2023/10/09 12:40:50;;;;;;;0.30;0.15;;;;;;;21.33;60.37;99998.03;5308457;26;20064;-94
2023/10/09 12:43:19;;;;;;;0.00;0.00;;;;;;;21.23;60.37;99995.16;5308285;26;20432;-95
2023/10/09 12:45:45;;;;;;;0.20;0.17;;;;;;;21.39;60.38;100005.53;5308157;26;20056;-95
2023/10/09 12:48:12;;;;;;;0.45;0.30;;;;;;;21.21;60.36;100015.59;5307737;26;20738;-94
2023/10/09 12:50:41;;;;;;;0.20;0.20;;;;;;;21.03;60.35;100023.03;5308047;26;20063;-94
2023/10/09 12:53:07;;;;;;;0.60;0.60;;;;;;;21.08;60.36;100023.59;5326881;26;20701;-95
2023/10/09 12:55:40;;;;;;;0.00;0.00;;;;;;;21.09;60.36;100009.41;5307800;26;20052;-94
2023/10/09 12:58:07;;;;;;;0.30;0.25;;;;;;;21.11;60.36;100006.63;5308373;26;20052;-95
2023/10/09 13:00:44;;;;;;;0.00;0.00;;;;;;;21.30;60.36;100008.84;5308113;26;20084;-95
2023/10/09 13:03:19;;;;;;;0.10;0.10;;;;;;;21.33;60.37;100004.16;5308905;26;20075;-94
2023/10/09 13:05:54;;;;;;;0.00;0.00;;;;;;;21.15;60.36;99995.72;5312586;26;20024;-94
2023/10/09 13:08:37;;;;;;;0.00;0.00;;;;;;;21.07;60.36;99990.12;5321474;26;20031;-94
2023/10/09 13:11:10;;;;;;;0.88;0.80;;;;;;;21.09;60.35;100005.91;5316998;26;20029;-93
2023/10/09 13:13:50;;;;;;;0.00;0.00;;;;;;;21.08;60.36;100014.81;5309151;26;20070;-93
2023/10/09 13:16:23;;;;;;;0.00;0.00;;;;;;;20.61;60.33;99989.03;5309874;26;20048;-93
2023/10/09 13:18:59;;;;;;;5.03;1.62;;;;;;;20.54;60.33;99997.38;5307914;26;20048;-94
2023/10/09 13:21:31;;;;;;;0.40;0.37;;;;;;;20.57;60.32;99988.38;5308506;26;20072;-94
2023/10/09 13:23:57;;;;;;;0.00;0.00;;;;;;;20.50;60.32;99995.91;5308052;26;20117;-95
2023/10/09 13:26:29;;;;;;;0.17;0.17;;;;;;;20.72;60.33;99984.69;5307367;26;20052;-96
2023/10/09 13:28:58;;;;;;;0.00;0.00;;;;;;;20.52;60.32;99986.06;5308591;26;20146;-95
2023/10/09 13:31:27;;;;;;;0.00;0.00;;;;;;;20.41;60.32;99983.31;5307615;26;20064;-95
2023/10/09 13:33:56;;;;;;;0.00;0.00;;;;;;;20.35;60.31;99978.44;5307933;26;20133;-93
2023/10/09 13:36:31;;;;;;;1.65;0.85;;;;;;;20.12;60.30;99987.09;5307282;26;20136;-94
2023/10/09 13:39:25;;;;;;;0.73;0.73;;;;;;;20.01;60.30;99989.59;5308212;26;20052;-94
2023/10/09 13:41:58;;;;;;;0.10;0.10;;;;;;;19.90;60.29;100000.91;5310153;26;20730;-94
2023/10/09 13:44:27;;;;;;;0.00;0.00;;;;;;;19.84;60.29;100002.13;5308386;26;20681;-94
2023/10/09 13:47:05;;;;;;;0.50;0.50;;;;;;;19.68;60.28;99996.19;5307749;26;20021;-95